Time;durP1;ratioP1;P1;durP2;ratioP2;P2;SDS_P1;SDS_P2;PMS_P1;PMS_P2;Temp;Humidity;BMP_temperature;BMP_pressure;BME280_temperature;BME280_humidity;BME280_pressure;Samples;Min_cycle;Max_cycle;Signal;HPM_P1;HPM_P2
2021/09/06 00:00:25;;;;;;;11.1;9.349998;;;;;;;10.63;72.31445;95700.53;;;;
2021/09/06 00:01:25;;;;;;;11.1;9.349998;;;;;;;10.63;72.31445;95700.53;;;;
2021/09/06 00:02:26;;;;;;;10.7;8.750001;;;;;;;10.54;72.51367;95709.99;;;;
2021/09/06 00:03:26;;;;;;;10.7;8.750001;;;;;;;10.54;72.51367;95709.99;;;;
2021/09/06 00:04:27;;;;;;;10.7;8.750001;;;;;;;10.54;72.51367;95709.99;;;;
2021/09/06 00:05:27;;;;;;;10.7;8.750001;;;;;;;10.54;72.51367;95709.99;;;;
2021/09/06 00:06:28;;;;;;;10.7;8.750001;;;;;;;10.54;72.51367;95709.99;;;;
2021/09/06 00:07:28;;;;;;;10.7;8.750001;;;;;;;10.54;72.51367;95709.99;;;;
2021/09/06 00:08:29;;;;;;;10.7;8.750001;;;;;;;10.54;72.51367;95709.99;;;;
2021/09/06 00:09:29;;;;;;;10.7;8.750001;;;;;;;10.54;72.51367;95709.99;;;;
2021/09/06 00:10:31;;;;;;;10.7;8.750001;;;;;;;10.54;72.51367;95709.99;;;;
2021/09/06 00:11:38;;;;;;;10.7;8.750001;;;;;;;10.54;72.51367;95709.99;;;;
2021/09/06 00:12:38;;;;;;;10.7;8.750001;;;;;;;10.54;72.51367;95709.99;;;;
2021/09/06 00:13:39;;;;;;;12.2;9.349999;;;;;;;10.37;72.72266;95712.45;;;;
2021/09/06 00:14:41;;;;;;;12.2;9.349999;;;;;;;10.37;72.72266;95712.45;;;;
2021/09/06 00:15:41;;;;;;;12.2;9.349999;;;;;;;10.37;72.72266;95712.45;;;;
2021/09/06 00:16:42;;;;;;;12.2;9.349999;;;;;;;10.37;72.72266;95712.45;;;;
2021/09/06 00:17:42;;;;;;;12.2;9.349999;;;;;;;10.37;72.72266;95712.45;;;;
2021/09/06 00:18:43;;;;;;;12.2;9.349999;;;;;;;10.37;72.72266;95712.45;;;;
2021/09/06 00:19:43;;;;;;;12.2;9.349999;;;;;;;10.37;72.72266;95712.45;;;;
2021/09/06 00:20:44;;;;;;;12.2;9.349999;;;;;;;10.37;72.72266;95712.45;;;;
2021/09/06 00:21:44;;;;;;;12.2;9.349999;;;;;;;10.37;72.72266;95712.45;;;;
2021/09/06 00:22:45;;;;;;;12.2;9.349999;;;;;;;10.37;72.72266;95712.45;;;;
2021/09/06 00:23:46;;;;;;;9.95;8.550001;;;;;;;10.22;73.02832;95717.36;;;;
2021/09/06 00:24:46;;;;;;;9.95;8.550001;;;;;;;10.22;73.02832;95717.36;;;;
2021/09/06 00:25:47;;;;;;;9.95;8.550001;;;;;;;10.22;73.02832;95717.36;;;;
2021/09/06 00:26:47;;;;;;;9.95;8.550001;;;;;;;10.22;73.02832;95717.36;;;;
2021/09/06 00:27:48;;;;;;;9.95;8.550001;;;;;;;10.22;73.02832;95717.36;;;;
2021/09/06 00:28:49;;;;;;;9.95;8.550001;;;;;;;10.22;73.02832;95717.36;;;;
2021/09/06 00:29:50;;;;;;;9.95;8.550001;;;;;;;10.22;73.02832;95717.36;;;;
2021/09/06 00:30:50;;;;;;;9.95;8.550001;;;;;;;10.22;73.02832;95717.36;;;;
2021/09/06 00:31:51;;;;;;;9.95;8.550001;;;;;;;10.22;73.02832;95717.36;;;;
2021/09/06 00:32:52;;;;;;;9.95;8.550001;;;;;;;10.22;73.02832;95717.36;;;;
2021/09/06 00:33:52;;;;;;;9.95;8.550001;;;;;;;10.22;73.02832;95717.36;;;;
2021/09/06 00:34:53;;;;;;;11.45;8.699999;;;;;;;10.08;73.19727;95718.1;;;;
2021/09/06 00:35:53;;;;;;;11.45;8.699999;;;;;;;10.08;73.19727;95718.1;;;;
2021/09/06 00:36:54;;;;;;;11.45;8.699999;;;;;;;10.08;73.19727;95718.1;;;;
2021/09/06 00:37:54;;;;;;;11.45;8.699999;;;;;;;10.08;73.19727;95718.1;;;;
2021/09/06 00:38:55;;;;;;;11.45;8.699999;;;;;;;10.08;73.19727;95718.1;;;;
2021/09/06 00:39:55;;;;;;;11.45;8.699999;;;;;;;10.08;73.19727;95718.1;;;;
2021/09/06 00:40:56;;;;;;;11.45;8.699999;;;;;;;10.08;73.19727;95718.1;;;;
2021/09/06 00:41:56;;;;;;;11.45;8.699999;;;;;;;10.08;73.19727;95718.1;;;;
2021/09/06 00:42:57;;;;;;;11.45;8.699999;;;;;;;10.08;73.19727;95718.1;;;;
2021/09/06 00:43:58;;;;;;;11.45;8.699999;;;;;;;10.08;73.19727;95718.1;;;;
2021/09/06 00:44:59;;;;;;;9.549999;7.900001;;;;;;;9.97;73.47754;95719.23;;;;
2021/09/06 00:45:59;;;;;;;9.549999;7.900001;;;;;;;9.97;73.47754;95719.23;;;;
2021/09/06 00:47:00;;;;;;;9.549999;7.900001;;;;;;;9.97;73.47754;95719.23;;;;
2021/09/06 00:48:01;;;;;;;9.549999;7.900001;;;;;;;9.97;73.47754;95719.23;;;;
2021/09/06 00:49:02;;;;;;;9.549999;7.900001;;;;;;;9.97;73.47754;95719.23;;;;
2021/09/06 00:50:06;;;;;;;9.549999;7.900001;;;;;;;9.97;73.47754;95719.23;;;;
2021/09/06 00:51:09;;;;;;;9.549999;7.900001;;;;;;;9.97;73.47754;95719.23;;;;
2021/09/06 00:52:10;;;;;;;9.549999;7.900001;;;;;;;9.97;73.47754;95719.23;;;;
2021/09/06 00:53:11;;;;;;;9.549999;7.900001;;;;;;;9.97;73.47754;95719.23;;;;
2021/09/06 00:54:11;;;;;;;9.549999;7.900001;;;;;;;9.97;73.47754;95719.23;;;;
2021/09/06 00:55:13;;;;;;;9.549999;7.900001;;;;;;;9.97;73.47754;95719.23;;;;
2021/09/06 00:56:16;;;;;;;10.25;8.049999;;;;;;;9.87;73.68652;95718.93;;;;
2021/09/06 00:57:18;;;;;;;10.25;8.049999;;;;;;;9.87;73.68652;95718.93;;;;
2021/09/06 00:58:18;;;;;;;10.25;8.049999;;;;;;;9.87;73.68652;95718.93;;;;
2021/09/06 00:59:20;;;;;;;10.25;8.049999;;;;;;;9.87;73.68652;95718.93;;;;
2021/09/06 01:00:21;;;;;;;10.25;8.049999;;;;;;;9.87;73.68652;95718.93;;;;
2021/09/06 01:01:22;;;;;;;10.25;8.049999;;;;;;;9.87;73.68652;95718.93;;;;
2021/09/06 01:02:22;;;;;;;10.25;8.049999;;;;;;;9.87;73.68652;95718.93;;;;
2021/09/06 01:03:23;;;;;;;10.25;8.049999;;;;;;;9.87;73.68652;95718.93;;;;
2021/09/06 01:04:23;;;;;;;10.25;8.049999;;;;;;;9.87;73.68652;95718.93;;;;
2021/09/06 01:05:24;;;;;;;10.25;8.049999;;;;;;;9.87;73.68652;95718.93;;;;
2021/09/06 01:06:24;;;;;;;9.700002;7.95;;;;;;;9.75;73.87891;95722.05;;;;
2021/09/06 01:07:25;;;;;;;9.700002;7.95;;;;;;;9.75;73.87891;95722.05;;;;
2021/09/06 01:08:27;;;;;;;9.700002;7.95;;;;;;;9.75;73.87891;95722.05;;;;
2021/09/06 01:09:28;;;;;;;9.700002;7.95;;;;;;;9.75;73.87891;95722.05;;;;
2021/09/06 01:10:28;;;;;;;9.700002;7.95;;;;;;;9.75;73.87891;95722.05;;;;
2021/09/06 01:11:29;;;;;;;9.700002;7.95;;;;;;;9.75;73.87891;95722.05;;;;
2021/09/06 01:12:30;;;;;;;9.700002;7.95;;;;;;;9.75;73.87891;95722.05;;;;
2021/09/06 01:13:30;;;;;;;9.700002;7.95;;;;;;;9.75;73.87891;95722.05;;;;
2021/09/06 01:14:31;;;;;;;9.700002;7.95;;;;;;;9.75;73.87891;95722.05;;;;
2021/09/06 01:15:31;;;;;;;9.700002;7.95;;;;;;;9.75;73.87891;95722.05;;;;
2021/09/06 01:16:32;;;;;;;9.700002;7.95;;;;;;;9.75;73.87891;95722.05;;;;
2021/09/06 01:17:33;;;;;;;10.8;8.25;;;;;;;9.71;73.92676;95715.44;;;;
2021/09/06 01:18:33;;;;;;;10.8;8.25;;;;;;;9.71;73.92676;95715.44;;;;
2021/09/06 01:19:34;;;;;;;10.8;8.25;;;;;;;9.71;73.92676;95715.44;;;;
2021/09/06 01:20:35;;;;;;;10.8;8.25;;;;;;;9.71;73.92676;95715.44;;;;
2021/09/06 01:21:35;;;;;;;10.8;8.25;;;;;;;9.71;73.92676;95715.44;;;;
2021/09/06 01:22:36;;;;;;;10.8;8.25;;;;;;;9.71;73.92676;95715.44;;;;
2021/09/06 01:23:37;;;;;;;10.8;8.25;;;;;;;9.71;73.92676;95715.44;;;;
2021/09/06 01:24:37;;;;;;;10.8;8.25;;;;;;;9.71;73.92676;95715.44;;;;
2021/09/06 01:25:38;;;;;;;10.8;8.25;;;;;;;9.71;73.92676;95715.44;;;;
2021/09/06 01:26:38;;;;;;;10.8;8.25;;;;;;;9.71;73.92676;95715.44;;;;
2021/09/06 01:27:39;;;;;;;10.55;8.399999;;;;;;;9.58;74.08398;95726.31;;;;
2021/09/06 01:28:40;;;;;;;10.55;8.399999;;;;;;;9.58;74.08398;95726.31;;;;
2021/09/06 01:29:41;;;;;;;10.55;8.399999;;;;;;;9.58;74.08398;95726.31;;;;
2021/09/06 01:30:42;;;;;;;10.55;8.399999;;;;;;;9.58;74.08398;95726.31;;;;
2021/09/06 01:31:43;;;;;;;10.55;8.399999;;;;;;;9.58;74.08398;95726.31;;;;
2021/09/06 01:32:44;;;;;;;10.55;8.399999;;;;;;;9.58;74.08398;95726.31;;;;
2021/09/06 01:33:44;;;;;;;10.55;8.399999;;;;;;;9.58;74.08398;95726.31;;;;
2021/09/06 01:34:45;;;;;;;10.55;8.399999;;;;;;;9.58;74.08398;95726.31;;;;
2021/09/06 01:35:46;;;;;;;10.55;8.399999;;;;;;;9.58;74.08398;95726.31;;;;
2021/09/06 01:36:46;;;;;;;10.55;8.399999;;;;;;;9.58;74.08398;95726.31;;;;
2021/09/06 01:37:47;;;;;;;10.55;8.399999;;;;;;;9.58;74.08398;95726.31;;;;
2021/09/06 01:38:47;;;;;;;10.25;8.3;;;;;;;9.52;74.22363;95724.49;;;;
2021/09/06 01:39:48;;;;;;;10.25;8.3;;;;;;;9.52;74.22363;95724.49;;;;
2021/09/06 01:40:48;;;;;;;10.25;8.3;;;;;;;9.52;74.22363;95724.49;;;;
2021/09/06 01:41:49;;;;;;;10.25;8.3;;;;;;;9.52;74.22363;95724.49;;;;
2021/09/06 01:42:49;;;;;;;10.25;8.3;;;;;;;9.52;74.22363;95724.49;;;;
2021/09/06 01:43:50;;;;;;;10.25;8.3;;;;;;;9.52;74.22363;95724.49;;;;
2021/09/06 01:44:50;;;;;;;10.25;8.3;;;;;;;9.52;74.22363;95724.49;;;;
2021/09/06 01:45:51;;;;;;;10.25;8.3;;;;;;;9.52;74.22363;95724.49;;;;
2021/09/06 01:46:51;;;;;;;10.25;8.3;;;;;;;9.52;74.22363;95724.49;;;;
2021/09/06 01:47:52;;;;;;;10.25;8.3;;;;;;;9.52;74.22363;95724.49;;;;
2021/09/06 01:48:54;;;;;;;10.9;8.249998;;;;;;;9.38;74.35938;95727.39;;;;
2021/09/06 01:49:56;;;;;;;10.9;8.249998;;;;;;;9.38;74.35938;95727.39;;;;
2021/09/06 01:50:57;;;;;;;10.9;8.249998;;;;;;;9.38;74.35938;95727.39;;;;
2021/09/06 01:51:58;;;;;;;10.9;8.249998;;;;;;;9.38;74.35938;95727.39;;;;
2021/09/06 01:52:58;;;;;;;10.9;8.249998;;;;;;;9.38;74.35938;95727.39;;;;
2021/09/06 01:53:59;;;;;;;10.9;8.249998;;;;;;;9.38;74.35938;95727.39;;;;
2021/09/06 01:54:59;;;;;;;10.9;8.249998;;;;;;;9.38;74.35938;95727.39;;;;
2021/09/06 01:56:00;;;;;;;10.9;8.249998;;;;;;;9.38;74.35938;95727.39;;;;
2021/09/06 01:57:00;;;;;;;10.9;8.249998;;;;;;;9.38;74.35938;95727.39;;;;
2021/09/06 01:58:01;;;;;;;10.9;8.249998;;;;;;;9.38;74.35938;95727.39;;;;
2021/09/06 01:59:01;;;;;;;10.9;8.249998;;;;;;;9.38;74.35938;95727.39;;;;
2021/09/06 02:00:02;;;;;;;9.100001;7.85;;;;;;;9.26;74.63867;95729.55;;;;
2021/09/06 02:01:05;;;;;;;9.100001;7.85;;;;;;;9.26;74.63867;95729.55;;;;
2021/09/06 02:02:05;;;;;;;9.100001;7.85;;;;;;;9.26;74.63867;95729.55;;;;
2021/09/06 02:03:06;;;;;;;9.100001;7.85;;;;;;;9.26;74.63867;95729.55;;;;
2021/09/06 02:04:06;;;;;;;9.100001;7.85;;;;;;;9.26;74.63867;95729.55;;;;
2021/09/06 02:05:07;;;;;;;9.100001;7.85;;;;;;;9.26;74.63867;95729.55;;;;
2021/09/06 02:06:08;;;;;;;9.100001;7.85;;;;;;;9.26;74.63867;95729.55;;;;
2021/09/06 02:07:09;;;;;;;9.100001;7.85;;;;;;;9.26;74.63867;95729.55;;;;
2021/09/06 02:08:10;;;;;;;9.100001;7.85;;;;;;;9.26;74.63867;95729.55;;;;
2021/09/06 02:09:10;;;;;;;9.100001;7.85;;;;;;;9.26;74.63867;95729.55;;;;
2021/09/06 02:10:11;;;;;;;9.100001;7.85;;;;;;;9.26;74.63867;95729.55;;;;
2021/09/06 02:11:11;;;;;;;9.949998;7.6;;;;;;;9.14;74.83105;95723.72;;;;
2021/09/06 02:12:12;;;;;;;9.949998;7.6;;;;;;;9.14;74.83105;95723.72;;;;
2021/09/06 02:13:12;;;;;;;9.949998;7.6;;;;;;;9.14;74.83105;95723.72;;;;
2021/09/06 02:14:13;;;;;;;9.949998;7.6;;;;;;;9.14;74.83105;95723.72;;;;
2021/09/06 02:15:14;;;;;;;9.949998;7.6;;;;;;;9.14;74.83105;95723.72;;;;
2021/09/06 02:16:14;;;;;;;9.949998;7.6;;;;;;;9.14;74.83105;95723.72;;;;
2021/09/06 02:17:15;;;;;;;9.949998;7.6;;;;;;;9.14;74.83105;95723.72;;;;
2021/09/06 02:18:15;;;;;;;9.949998;7.6;;;;;;;9.14;74.83105;95723.72;;;;
2021/09/06 02:19:16;;;;;;;9.949998;7.6;;;;;;;9.14;74.83105;95723.72;;;;
2021/09/06 02:20:16;;;;;;;9.949998;7.6;;;;;;;9.14;74.83105;95723.72;;;;
2021/09/06 02:21:17;;;;;;;9.949998;7.6;;;;;;;9.14;74.83105;95723.72;;;;
2021/09/06 02:22:17;;;;;;;9.949998;7.6;;;;;;;9.14;74.83105;95723.72;;;;
2021/09/06 02:23:18;;;;;;;9.949998;7.6;;;;;;;9.14;74.83105;95723.72;;;;
2021/09/06 02:24:18;;;;;;;9.949998;7.6;;;;;;;9.14;74.83105;95723.72;;;;
2021/09/06 02:25:19;;;;;;;9.949998;7.6;;;;;;;9.14;74.83105;95723.72;;;;
2021/09/06 02:26:20;;;;;;;9.949998;7.6;;;;;;;9.14;74.83105;95723.72;;;;
2021/09/06 02:27:20;;;;;;;9.949998;7.6;;;;;;;9.14;74.83105;95723.72;;;;
2021/09/06 02:28:21;;;;;;;9.949998;7.6;;;;;;;9.14;74.83105;95723.72;;;;
2021/09/06 02:29:21;;;;;;;9.949998;7.6;;;;;;;9.14;74.83105;95723.72;;;;
2021/09/06 02:30:22;;;;;;;9.949998;7.6;;;;;;;9.14;74.83105;95723.72;;;;
2021/09/06 02:31:22;;;;;;;9.949998;7.6;;;;;;;9.14;74.83105;95723.72;;;;
2021/09/06 02:32:23;;;;;;;11.05;8.450001;;;;;;;8.9;75.16406;95736.49;;;;
2021/09/06 02:33:24;;;;;;;11.05;8.450001;;;;;;;8.9;75.16406;95736.49;;;;
2021/09/06 02:34:24;;;;;;;11.05;8.450001;;;;;;;8.9;75.16406;95736.49;;;;
2021/09/06 02:35:25;;;;;;;11.05;8.450001;;;;;;;8.9;75.16406;95736.49;;;;
2021/09/06 02:36:25;;;;;;;11.05;8.450001;;;;;;;8.9;75.16406;95736.49;;;;
2021/09/06 02:37:26;;;;;;;11.05;8.450001;;;;;;;8.9;75.16406;95736.49;;;;
2021/09/06 02:38:27;;;;;;;11.05;8.450001;;;;;;;8.9;75.16406;95736.49;;;;
2021/09/06 02:39:27;;;;;;;11.05;8.450001;;;;;;;8.9;75.16406;95736.49;;;;
2021/09/06 02:40:28;;;;;;;11.05;8.450001;;;;;;;8.9;75.16406;95736.49;;;;
2021/09/06 02:41:28;;;;;;;11.05;8.450001;;;;;;;8.9;75.16406;95736.49;;;;
2021/09/06 02:42:29;;;;;;;11.4;8.549999;;;;;;;8.81;75.30762;95727.93;;;;
2021/09/06 02:43:30;;;;;;;11.4;8.549999;;;;;;;8.81;75.30762;95727.93;;;;
2021/09/06 02:44:31;;;;;;;11.4;8.549999;;;;;;;8.81;75.30762;95727.93;;;;
2021/09/06 02:45:31;;;;;;;11.4;8.549999;;;;;;;8.81;75.30762;95727.93;;;;
2021/09/06 02:46:32;;;;;;;11.4;8.549999;;;;;;;8.81;75.30762;95727.93;;;;
2021/09/06 02:47:32;;;;;;;11.4;8.549999;;;;;;;8.81;75.30762;95727.93;;;;
2021/09/06 02:48:33;;;;;;;11.4;8.549999;;;;;;;8.81;75.30762;95727.93;;;;
2021/09/06 02:49:33;;;;;;;11.4;8.549999;;;;;;;8.81;75.30762;95727.93;;;;
2021/09/06 02:50:34;;;;;;;11.4;8.549999;;;;;;;8.81;75.30762;95727.93;;;;
2021/09/06 02:51:34;;;;;;;11.4;8.549999;;;;;;;8.81;75.30762;95727.93;;;;
2021/09/06 02:52:35;;;;;;;11.4;8.549999;;;;;;;8.81;75.30762;95727.93;;;;
2021/09/06 02:53:35;;;;;;;11.4;8.549999;;;;;;;8.81;75.30762;95727.93;;;;
2021/09/06 02:54:36;;;;;;;11.4;8.549999;;;;;;;8.81;75.30762;95727.93;;;;
2021/09/06 02:55:37;;;;;;;11.4;8.549999;;;;;;;8.81;75.30762;95727.93;;;;
2021/09/06 02:56:37;;;;;;;11.4;8.549999;;;;;;;8.81;75.30762;95727.93;;;;
2021/09/06 02:57:38;;;;;;;11.4;8.549999;;;;;;;8.81;75.30762;95727.93;;;;
2021/09/06 02:58:39;;;;;;;11.4;8.549999;;;;;;;8.81;75.30762;95727.93;;;;
2021/09/06 02:59:39;;;;;;;11.4;8.549999;;;;;;;8.81;75.30762;95727.93;;;;
2021/09/06 03:00:40;;;;;;;11.4;8.549999;;;;;;;8.81;75.30762;95727.93;;;;
2021/09/06 03:01:41;;;;;;;11.4;8.549999;;;;;;;8.81;75.30762;95727.93;;;;
2021/09/06 03:02:41;;;;;;;11.4;8.549999;;;;;;;8.81;75.30762;95727.93;;;;
2021/09/06 03:03:42;;;;;;;12.65;8.550001;;;;;;;8.65;75.63086;95718.06;;;;
2021/09/06 03:04:42;;;;;;;12.65;8.550001;;;;;;;8.65;75.63086;95718.06;;;;
2021/09/06 03:05:43;;;;;;;12.65;8.550001;;;;;;;8.65;75.63086;95718.06;;;;
2021/09/06 03:06:44;;;;;;;12.65;8.550001;;;;;;;8.65;75.63086;95718.06;;;;
2021/09/06 03:07:44;;;;;;;12.65;8.550001;;;;;;;8.65;75.63086;95718.06;;;;
2021/09/06 03:08:45;;;;;;;12.65;8.550001;;;;;;;8.65;75.63086;95718.06;;;;
2021/09/06 03:09:45;;;;;;;12.65;8.550001;;;;;;;8.65;75.63086;95718.06;;;;
2021/09/06 03:10:46;;;;;;;12.65;8.550001;;;;;;;8.65;75.63086;95718.06;;;;
2021/09/06 03:11:46;;;;;;;12.65;8.550001;;;;;;;8.65;75.63086;95718.06;;;;
2021/09/06 03:12:47;;;;;;;12.65;8.550001;;;;;;;8.65;75.63086;95718.06;;;;
2021/09/06 03:13:47;;;;;;;12.65;8.550001;;;;;;;8.65;75.63086;95718.06;;;;
2021/09/06 03:14:48;;;;;;;12.35;8.7;;;;;;;8.56;75.75293;95731.03;;;;
2021/09/06 03:15:48;;;;;;;12.35;8.7;;;;;;;8.56;75.75293;95731.03;;;;
2021/09/06 03:16:50;;;;;;;12.35;8.7;;;;;;;8.56;75.75293;95731.03;;;;
2021/09/06 03:17:51;;;;;;;12.35;8.7;;;;;;;8.56;75.75293;95731.03;;;;
2021/09/06 03:18:52;;;;;;;12.35;8.7;;;;;;;8.56;75.75293;95731.03;;;;
2021/09/06 03:19:52;;;;;;;12.35;8.7;;;;;;;8.56;75.75293;95731.03;;;;
2021/09/06 03:20:53;;;;;;;12.35;8.7;;;;;;;8.56;75.75293;95731.03;;;;
2021/09/06 03:21:53;;;;;;;12.35;8.7;;;;;;;8.56;75.75293;95731.03;;;;
2021/09/06 03:22:54;;;;;;;12.35;8.7;;;;;;;8.56;75.75293;95731.03;;;;
2021/09/06 03:23:54;;;;;;;12.35;8.7;;;;;;;8.56;75.75293;95731.03;;;;
2021/09/06 03:24:55;;;;;;;10.95;8.5;;;;;;;8.47;75.8877;95730.96;;;;
2021/09/06 03:25:55;;;;;;;10.95;8.5;;;;;;;8.47;75.8877;95730.96;;;;
2021/09/06 03:26:56;;;;;;;10.95;8.5;;;;;;;8.47;75.8877;95730.96;;;;
2021/09/06 03:27:56;;;;;;;10.95;8.5;;;;;;;8.47;75.8877;95730.96;;;;
2021/09/06 03:28:57;;;;;;;10.95;8.5;;;;;;;8.47;75.8877;95730.96;;;;
2021/09/06 03:29:57;;;;;;;10.95;8.5;;;;;;;8.47;75.8877;95730.96;;;;
2021/09/06 03:30:58;;;;;;;10.95;8.5;;;;;;;8.47;75.8877;95730.96;;;;
2021/09/06 03:31:59;;;;;;;10.95;8.5;;;;;;;8.47;75.8877;95730.96;;;;
2021/09/06 03:32:59;;;;;;;10.95;8.5;;;;;;;8.47;75.8877;95730.96;;;;
2021/09/06 03:34:00;;;;;;;10.95;8.5;;;;;;;8.47;75.8877;95730.96;;;;
2021/09/06 03:35:01;;;;;;;10.95;8.5;;;;;;;8.47;75.8877;95730.96;;;;
2021/09/06 03:36:02;;;;;;;10.7;8.300001;;;;;;;8.37;76.01953;95729.21;;;;
2021/09/06 03:37:04;;;;;;;10.7;8.300001;;;;;;;8.37;76.01953;95729.21;;;;
2021/09/06 03:38:04;;;;;;;10.7;8.300001;;;;;;;8.37;76.01953;95729.21;;;;
2021/09/06 03:39:05;;;;;;;10.7;8.300001;;;;;;;8.37;76.01953;95729.21;;;;
2021/09/06 03:40:05;;;;;;;10.7;8.300001;;;;;;;8.37;76.01953;95729.21;;;;
2021/09/06 03:41:07;;;;;;;10.7;8.300001;;;;;;;8.37;76.01953;95729.21;;;;
2021/09/06 03:42:07;;;;;;;10.7;8.300001;;;;;;;8.37;76.01953;95729.21;;;;
2021/09/06 03:43:09;;;;;;;10.7;8.300001;;;;;;;8.37;76.01953;95729.21;;;;
2021/09/06 03:44:10;;;;;;;10.7;8.300001;;;;;;;8.37;76.01953;95729.21;;;;
2021/09/06 03:45:12;;;;;;;10.7;8.300001;;;;;;;8.37;76.01953;95729.21;;;;
2021/09/06 03:46:12;;;;;;;13.25;9.050001;;;;;;;8.27;76.16113;95720.25;;;;
2021/09/06 03:47:13;;;;;;;13.25;9.050001;;;;;;;8.27;76.16113;95720.25;;;;
2021/09/06 03:48:13;;;;;;;13.25;9.050001;;;;;;;8.27;76.16113;95720.25;;;;
2021/09/06 03:49:14;;;;;;;13.25;9.050001;;;;;;;8.27;76.16113;95720.25;;;;
2021/09/06 03:50:14;;;;;;;13.25;9.050001;;;;;;;8.27;76.16113;95720.25;;;;
2021/09/06 03:51:15;;;;;;;13.25;9.050001;;;;;;;8.27;76.16113;95720.25;;;;
2021/09/06 03:52:15;;;;;;;13.25;9.050001;;;;;;;8.27;76.16113;95720.25;;;;
2021/09/06 03:53:16;;;;;;;13.25;9.050001;;;;;;;8.27;76.16113;95720.25;;;;
2021/09/06 03:54:16;;;;;;;13.25;9.050001;;;;;;;8.27;76.16113;95720.25;;;;
2021/09/06 03:55:18;;;;;;;13.25;9.050001;;;;;;;8.27;76.16113;95720.25;;;;
2021/09/06 03:56:19;;;;;;;13.25;9.050001;;;;;;;8.27;76.16113;95720.25;;;;
2021/09/06 03:57:19;;;;;;;9.799998;8.050001;;;;;;;8.2;76.31836;95721.69;;;;
2021/09/06 03:58:20;;;;;;;9.799998;8.050001;;;;;;;8.2;76.31836;95721.69;;;;
2021/09/06 03:59:20;;;;;;;9.799998;8.050001;;;;;;;8.2;76.31836;95721.69;;;;
2021/09/06 04:00:21;;;;;;;9.799998;8.050001;;;;;;;8.2;76.31836;95721.69;;;;
2021/09/06 04:01:22;;;;;;;9.799998;8.050001;;;;;;;8.2;76.31836;95721.69;;;;
2021/09/06 04:02:23;;;;;;;9.799998;8.050001;;;;;;;8.2;76.31836;95721.69;;;;
2021/09/06 04:03:23;;;;;;;9.799998;8.050001;;;;;;;8.2;76.31836;95721.69;;;;
2021/09/06 04:04:24;;;;;;;9.799998;8.050001;;;;;;;8.2;76.31836;95721.69;;;;
2021/09/06 04:05:24;;;;;;;9.799998;8.050001;;;;;;;8.2;76.31836;95721.69;;;;
2021/09/06 04:06:25;;;;;;;9.799998;8.050001;;;;;;;8.2;76.31836;95721.69;;;;
2021/09/06 04:07:25;;;;;;;9.799998;8.050001;;;;;;;8.2;76.31836;95721.69;;;;
2021/09/06 04:08:26;;;;;;;9.949999;8.049999;;;;;;;8.2;76.33008;95731.91;;;;
2021/09/06 04:09:29;;;;;;;9.949999;8.049999;;;;;;;8.2;76.33008;95731.91;;;;
2021/09/06 04:10:29;;;;;;;9.949999;8.049999;;;;;;;8.2;76.33008;95731.91;;;;
2021/09/06 04:11:30;;;;;;;9.949999;8.049999;;;;;;;8.2;76.33008;95731.91;;;;
2021/09/06 04:12:30;;;;;;;9.949999;8.049999;;;;;;;8.2;76.33008;95731.91;;;;
2021/09/06 04:13:31;;;;;;;9.949999;8.049999;;;;;;;8.2;76.33008;95731.91;;;;
2021/09/06 04:14:34;;;;;;;9.949999;8.049999;;;;;;;8.2;76.33008;95731.91;;;;
2021/09/06 04:15:35;;;;;;;9.949999;8.049999;;;;;;;8.2;76.33008;95731.91;;;;
2021/09/06 04:16:35;;;;;;;9.949999;8.049999;;;;;;;8.2;76.33008;95731.91;;;;
2021/09/06 04:17:36;;;;;;;9.949999;8.049999;;;;;;;8.2;76.33008;95731.91;;;;
2021/09/06 04:18:37;;;;;;;11.7;8.65;;;;;;;8.18;76.25293;95739.39;;;;
2021/09/06 04:19:37;;;;;;;11.7;8.65;;;;;;;8.18;76.25293;95739.39;;;;
2021/09/06 04:20:39;;;;;;;11.7;8.65;;;;;;;8.18;76.25293;95739.39;;;;
2021/09/06 04:21:40;;;;;;;11.7;8.65;;;;;;;8.18;76.25293;95739.39;;;;
2021/09/06 04:22:40;;;;;;;11.7;8.65;;;;;;;8.18;76.25293;95739.39;;;;
2021/09/06 04:23:42;;;;;;;11.7;8.65;;;;;;;8.18;76.25293;95739.39;;;;
2021/09/06 04:24:43;;;;;;;11.7;8.65;;;;;;;8.18;76.25293;95739.39;;;;
2021/09/06 04:25:43;;;;;;;11.7;8.65;;;;;;;8.18;76.25293;95739.39;;;;
2021/09/06 04:26:44;;;;;;;11.7;8.65;;;;;;;8.18;76.25293;95739.39;;;;
2021/09/06 04:27:45;;;;;;;11.7;8.65;;;;;;;8.18;76.25293;95739.39;;;;
2021/09/06 04:28:45;;;;;;;11.7;8.65;;;;;;;8.18;76.25293;95739.39;;;;
2021/09/06 04:29:46;;;;;;;11.7;8.299999;;;;;;;8.16;76.33301;95741.97;;;;
2021/09/06 04:30:46;;;;;;;11.7;8.299999;;;;;;;8.16;76.33301;95741.97;;;;
2021/09/06 04:31:48;;;;;;;11.7;8.299999;;;;;;;8.16;76.33301;95741.97;;;;
2021/09/06 04:32:49;;;;;;;11.7;8.299999;;;;;;;8.16;76.33301;95741.97;;;;
2021/09/06 04:33:49;;;;;;;11.7;8.299999;;;;;;;8.16;76.33301;95741.97;;;;
2021/09/06 04:34:50;;;;;;;11.7;8.299999;;;;;;;8.16;76.33301;95741.97;;;;
2021/09/06 04:35:50;;;;;;;11.7;8.299999;;;;;;;8.16;76.33301;95741.97;;;;
2021/09/06 04:36:51;;;;;;;11.7;8.299999;;;;;;;8.16;76.33301;95741.97;;;;
2021/09/06 04:37:52;;;;;;;11.7;8.299999;;;;;;;8.16;76.33301;95741.97;;;;
2021/09/06 04:38:53;;;;;;;11.7;8.299999;;;;;;;8.16;76.33301;95741.97;;;;
2021/09/06 04:39:53;;;;;;;11.7;8.299999;;;;;;;8.16;76.33301;95741.97;;;;
2021/09/06 04:40:54;;;;;;;11.7;8.299999;;;;;;;8.16;76.33301;95741.97;;;;
2021/09/06 04:41:54;;;;;;;11.7;8.299999;;;;;;;8.16;76.33301;95741.97;;;;
2021/09/06 04:42:55;;;;;;;11.7;8.299999;;;;;;;8.16;76.33301;95741.97;;;;
2021/09/06 04:43:55;;;;;;;11.7;8.299999;;;;;;;8.16;76.33301;95741.97;;;;
2021/09/06 04:44:56;;;;;;;11.7;8.299999;;;;;;;8.16;76.33301;95741.97;;;;
2021/09/06 04:45:57;;;;;;;11.7;8.299999;;;;;;;8.16;76.33301;95741.97;;;;
2021/09/06 04:46:57;;;;;;;11.7;8.299999;;;;;;;8.16;76.33301;95741.97;;;;
2021/09/06 04:47:58;;;;;;;11.7;8.299999;;;;;;;8.16;76.33301;95741.97;;;;
2021/09/06 04:48:58;;;;;;;11.7;8.299999;;;;;;;8.16;76.33301;95741.97;;;;
2021/09/06 04:49:59;;;;;;;11.7;8.299999;;;;;;;8.16;76.33301;95741.97;;;;
2021/09/06 04:51:00;;;;;;;10.7;8.849999;;;;;;;8.04;76.86621;95751.17;;;;
2021/09/06 04:52:00;;;;;;;10.7;8.849999;;;;;;;8.04;76.86621;95751.17;;;;
2021/09/06 04:53:01;;;;;;;10.7;8.849999;;;;;;;8.04;76.86621;95751.17;;;;
2021/09/06 04:54:02;;;;;;;10.7;8.849999;;;;;;;8.04;76.86621;95751.17;;;;
2021/09/06 04:55:02;;;;;;;10.7;8.849999;;;;;;;8.04;76.86621;95751.17;;;;
2021/09/06 04:56:04;;;;;;;10.7;8.849999;;;;;;;8.04;76.86621;95751.17;;;;
2021/09/06 04:57:04;;;;;;;10.7;8.849999;;;;;;;8.04;76.86621;95751.17;;;;
2021/09/06 04:58:05;;;;;;;10.7;8.849999;;;;;;;8.04;76.86621;95751.17;;;;
2021/09/06 04:59:05;;;;;;;10.7;8.849999;;;;;;;8.04;76.86621;95751.17;;;;
2021/09/06 05:00:06;;;;;;;10.7;8.849999;;;;;;;8.04;76.86621;95751.17;;;;
2021/09/06 05:01:08;;;;;;;13;8.650001;;;;;;;8.08;76.99805;95760.61;;;;
2021/09/06 05:02:08;;;;;;;13;8.650001;;;;;;;8.08;76.99805;95760.61;;;;
2021/09/06 05:03:09;;;;;;;13;8.650001;;;;;;;8.08;76.99805;95760.61;;;;
2021/09/06 05:04:09;;;;;;;13;8.650001;;;;;;;8.08;76.99805;95760.61;;;;
2021/09/06 05:05:10;;;;;;;13;8.650001;;;;;;;8.08;76.99805;95760.61;;;;
2021/09/06 05:06:10;;;;;;;13;8.650001;;;;;;;8.08;76.99805;95760.61;;;;
2021/09/06 05:07:11;;;;;;;13;8.650001;;;;;;;8.08;76.99805;95760.61;;;;
2021/09/06 05:08:11;;;;;;;13;8.650001;;;;;;;8.08;76.99805;95760.61;;;;
2021/09/06 05:09:12;;;;;;;13;8.650001;;;;;;;8.08;76.99805;95760.61;;;;
2021/09/06 05:10:12;;;;;;;13;8.650001;;;;;;;8.08;76.99805;95760.61;;;;
2021/09/06 05:11:13;;;;;;;13;8.650001;;;;;;;8.08;76.99805;95760.61;;;;
2021/09/06 05:12:13;;;;;;;12.15;8.65;;;;;;;8.17;77.12109;95770.5;;;;
2021/09/06 05:13:14;;;;;;;12.15;8.65;;;;;;;8.17;77.12109;95770.5;;;;
2021/09/06 05:14:14;;;;;;;12.15;8.65;;;;;;;8.17;77.12109;95770.5;;;;
2021/09/06 05:15:15;;;;;;;12.15;8.65;;;;;;;8.17;77.12109;95770.5;;;;
2021/09/06 05:16:16;;;;;;;12.15;8.65;;;;;;;8.17;77.12109;95770.5;;;;
2021/09/06 05:17:17;;;;;;;12.15;8.65;;;;;;;8.17;77.12109;95770.5;;;;
2021/09/06 05:18:17;;;;;;;12.15;8.65;;;;;;;8.17;77.12109;95770.5;;;;
2021/09/06 05:19:18;;;;;;;12.15;8.65;;;;;;;8.17;77.12109;95770.5;;;;
2021/09/06 05:20:18;;;;;;;12.15;8.65;;;;;;;8.17;77.12109;95770.5;;;;
2021/09/06 05:21:19;;;;;;;12.15;8.65;;;;;;;8.17;77.12109;95770.5;;;;
2021/09/06 05:22:20;;;;;;;10.8;8.7;;;;;;;8.3;77.1875;95774.14;;;;
2021/09/06 05:23:20;;;;;;;10.8;8.7;;;;;;;8.3;77.1875;95774.14;;;;
2021/09/06 05:24:21;;;;;;;10.8;8.7;;;;;;;8.3;77.1875;95774.14;;;;
2021/09/06 05:25:22;;;;;;;10.8;8.7;;;;;;;8.3;77.1875;95774.14;;;;
2021/09/06 05:26:22;;;;;;;10.8;8.7;;;;;;;8.3;77.1875;95774.14;;;;
2021/09/06 05:27:23;;;;;;;10.8;8.7;;;;;;;8.3;77.1875;95774.14;;;;
2021/09/06 05:28:23;;;;;;;10.8;8.7;;;;;;;8.3;77.1875;95774.14;;;;
2021/09/06 05:29:24;;;;;;;10.8;8.7;;;;;;;8.3;77.1875;95774.14;;;;
2021/09/06 05:30:25;;;;;;;10.8;8.7;;;;;;;8.3;77.1875;95774.14;;;;
2021/09/06 05:31:26;;;;;;;10.8;8.7;;;;;;;8.3;77.1875;95774.14;;;;